createdAt,value
2018-11-04T00:04:37.175Z,16.15
2018-11-04T00:09:41.709Z,16.73
2018-11-04T00:14:46.398Z,16.37
2018-11-04T00:19:50.795Z,15.13
2018-11-04T00:24:55.835Z,15.72
2018-11-04T00:31:03.900Z,15.28
2018-11-04T00:36:08.453Z,16.20
2018-11-04T00:41:12.934Z,16.42
2018-11-04T00:46:17.511Z,17.62
2018-11-04T00:51:22.820Z,17.52
2018-11-04T00:56:27.109Z,16.10
2018-11-04T01:07:00.082Z,16.60
2018-11-04T01:12:05.342Z,16.37
2018-11-04T01:17:10.462Z,16.15
2018-11-04T01:22:14.904Z,15.98
2018-11-04T01:27:19.425Z,17.17
2018-11-04T01:32:23.986Z,15.38
2018-11-04T01:37:28.496Z,16.00
2018-11-04T01:42:32.940Z,15.70
2018-11-04T01:47:37.576Z,16.42
2018-11-04T01:52:42.214Z,16.37
2018-11-04T01:57:47.580Z,17.42
2018-11-04T02:02:52.265Z,17.23
2018-11-04T02:07:56.926Z,16.40
2018-11-04T02:13:02.556Z,17.30
2018-11-04T02:18:07.842Z,16.87
2018-11-04T02:23:12.204Z,17.65
2018-11-04T02:28:16.650Z,17.25
2018-11-04T02:33:21.400Z,17.80
2018-11-04T02:38:26.210Z,17.07
2018-11-04T02:43:30.698Z,18.92
2018-11-04T02:48:35.676Z,17.02
2018-11-04T02:53:40.158Z,17.27
2018-11-04T02:58:44.665Z,16.77
2018-11-04T03:03:49.089Z,16.93
2018-11-04T03:08:53.502Z,18.77
2018-11-04T03:13:58.056Z,16.97
2018-11-04T03:19:03.757Z,17.65
2018-11-04T03:24:08.266Z,17.95
2018-11-04T03:29:12.806Z,18.40
2018-11-04T03:34:17.228Z,17.55
2018-11-04T03:39:21.848Z,17.73
2018-11-04T03:44:26.289Z,16.35
2018-11-04T03:49:30.595Z,17.98
2018-11-04T03:54:35.677Z,16.80
2018-11-04T03:59:40.407Z,19.15
2018-11-04T04:04:45.421Z,17.55
2018-11-04T04:09:50.161Z,19.35
2018-11-04T04:14:55.090Z,18.30
2018-11-04T04:19:59.723Z,18.87
2018-11-04T04:25:04.366Z,19.60
2018-11-04T04:30:10.471Z,20.62
2018-11-04T04:35:15.297Z,20.85
2018-11-04T04:40:19.704Z,20.30
2018-11-04T04:45:24.548Z,21.15
2018-11-04T04:50:29.447Z,20.08
2018-11-04T04:55:34.370Z,20.88
2018-11-04T05:00:39.840Z,20.17
2018-11-04T05:05:44.877Z,19.20
2018-11-04T05:10:49.588Z,20.82
2018-11-04T05:15:54.069Z,21.23
2018-11-04T05:20:58.722Z,20.55
2018-11-04T05:26:03.259Z,18.75
2018-11-04T05:31:08.531Z,16.90
2018-11-04T05:36:14.055Z,16.45
2018-11-04T05:41:18.487Z,14.65
2018-11-04T05:46:23.033Z,17.05
2018-11-04T05:51:28.469Z,15.90
2018-11-04T05:56:33.447Z,15.43
2018-11-04T06:01:38.148Z,16.02
2018-11-04T06:06:42.788Z,15.70
2018-11-04T06:11:47.216Z,15.65
2018-11-04T06:16:51.896Z,15.90
2018-11-04T06:21:56.540Z,15.35
2018-11-04T06:27:01.704Z,15.10
2018-11-04T06:32:06.164Z,15.20
2018-11-04T06:37:12.651Z,14.98
2018-11-04T06:42:23.003Z,14.55
2018-11-04T06:47:27.588Z,14.73
2018-11-04T06:52:34.175Z,15.10
2018-11-04T06:57:50.911Z,16.05
2018-11-04T07:02:57.499Z,16.48
2018-11-04T07:08:01.910Z,15.72
2018-11-04T07:13:06.939Z,14.33
2018-11-04T07:18:12.452Z,15.00
2018-11-04T07:23:16.909Z,15.18
2018-11-04T07:28:21.476Z,15.28
2018-11-04T07:33:26.131Z,14.73
2018-11-04T07:38:30.735Z,15.95
2018-11-04T07:43:35.140Z,14.75
2018-11-04T07:48:40.011Z,15.85
2018-11-04T07:53:45.712Z,15.58
2018-11-04T07:58:50.281Z,15.98
2018-11-04T08:03:54.782Z,16.10
2018-11-04T08:08:59.358Z,16.77
2018-11-04T08:14:03.966Z,16.00
2018-11-04T08:19:08.874Z,16.52
2018-11-04T08:24:13.974Z,14.95
2018-11-04T08:29:18.347Z,16.10
2018-11-04T08:34:22.974Z,16.37
2018-11-04T08:39:27.605Z,16.75
2018-11-04T08:44:33.017Z,14.93
2018-11-04T08:49:38.280Z,15.32
2018-11-04T08:54:43.026Z,15.63
2018-11-04T08:59:47.464Z,14.98
2018-11-04T09:04:52.245Z,15.15
2018-11-04T09:09:57.456Z,15.25
2018-11-04T09:15:02.415Z,14.13
2018-11-04T09:20:08.998Z,16.17
2018-11-04T09:25:13.896Z,15.83
2018-11-04T09:30:18.502Z,15.53
2018-11-04T09:35:22.808Z,14.85
2018-11-04T09:40:28.008Z,14.63
2018-11-04T09:45:33.235Z,15.00
2018-11-04T09:50:37.878Z,14.78
2018-11-04T09:55:42.391Z,15.23
2018-11-04T10:00:47.237Z,14.73
2018-11-04T10:05:51.588Z,13.90
2018-11-04T10:10:56.016Z,13.68
2018-11-04T10:16:01.144Z,14.73
2018-11-04T10:21:06.103Z,14.83
2018-11-04T10:26:10.332Z,15.00
2018-11-04T10:31:16.099Z,14.25
2018-11-04T10:36:21.453Z,14.33
2018-11-04T10:41:26.099Z,14.30
2018-11-04T10:46:30.586Z,14.45
2018-11-04T10:51:35.537Z,15.28
2018-11-04T10:56:40.026Z,13.50
2018-11-04T11:01:44.605Z,15.20
2018-11-04T11:06:49.454Z,13.53
2018-11-04T11:11:54.134Z,13.93
2018-11-04T11:17:00.080Z,14.10
2018-11-04T11:22:04.553Z,13.15
2018-11-04T11:27:09.379Z,13.03
2018-11-04T11:32:13.839Z,12.53
2018-11-04T11:37:19.161Z,12.53
2018-11-04T11:42:25.073Z,12.63
2018-11-04T11:47:29.570Z,12.93
2018-11-04T11:52:33.942Z,12.73
2018-11-04T11:57:38.336Z,12.23
2018-11-04T12:02:43.042Z,12.13
2018-11-04T12:07:48.058Z,13.30
2018-11-04T12:12:52.866Z,12.05
2018-11-04T12:17:58.209Z,11.97
2018-11-04T12:23:03.939Z,12.88
2018-11-04T12:28:08.504Z,13.00
2018-11-04T12:33:13.405Z,12.00
2018-11-04T12:38:18.263Z,13.60
2018-11-04T12:43:22.795Z,12.80
2018-11-04T12:48:27.290Z,13.28
2018-11-04T12:53:31.739Z,13.20
2018-11-04T12:58:42.636Z,12.45
2018-11-04T13:03:47.169Z,12.95
2018-11-04T13:08:51.621Z,13.25
2018-11-04T13:13:56.105Z,14.47
2018-11-04T13:19:00.536Z,11.90
2018-11-04T13:24:06.494Z,12.53
2018-11-04T13:29:10.823Z,13.70
2018-11-04T13:34:14.952Z,12.50
2018-11-04T13:39:19.314Z,12.23
2018-11-04T13:44:23.705Z,12.37
2018-11-04T13:49:29.356Z,12.53
2018-11-04T13:54:33.930Z,12.55
2018-11-04T13:59:38.849Z,12.33
2018-11-04T14:04:44.089Z,12.95
2018-11-04T14:09:49.650Z,12.88
2018-11-04T14:14:54.075Z,11.85
2018-11-04T14:19:58.475Z,11.80
2018-11-04T14:25:03.003Z,11.57
2018-11-04T14:30:11.246Z,11.73
2018-11-04T14:35:15.794Z,12.35
2018-11-04T14:45:54.687Z,12.82
2018-11-04T14:50:59.066Z,11.73
2018-11-04T14:56:03.468Z,10.45
2018-11-04T15:01:08.596Z,12.75
2018-11-04T15:06:12.551Z,11.88
2018-11-04T15:11:16.928Z,11.70
2018-11-04T15:16:21.349Z,11.78
2018-11-04T15:21:25.941Z,11.05
2018-11-04T15:26:30.540Z,10.05
2018-11-04T15:31:34.965Z,10.63
2018-11-04T15:36:39.475Z,10.30
2018-11-04T15:41:43.993Z,11.10
2018-11-04T15:46:48.462Z,11.50
2018-11-04T15:51:53.036Z,9.60
2018-11-04T15:57:02.660Z,11.08
2018-11-04T16:02:06.992Z,11.28
2018-11-04T16:12:39.500Z,12.00
2018-11-04T16:17:45.989Z,11.97
2018-11-04T16:22:51.065Z,14.28
2018-11-04T16:27:56.156Z,11.60
2018-11-04T16:33:00.740Z,11.83
2018-11-04T16:38:06.159Z,10.50
2018-11-04T16:43:11.709Z,11.48
2018-11-04T16:48:16.167Z,12.10
2018-11-04T16:53:20.957Z,12.10
2018-11-04T16:58:26.413Z,11.78
2018-11-04T17:03:30.992Z,13.18
2018-11-04T17:08:35.442Z,12.00
2018-11-04T17:13:39.821Z,16.60
2018-11-04T17:18:44.903Z,12.53
2018-11-04T17:23:50.494Z,12.25
2018-11-04T17:28:55.157Z,12.03
2018-11-04T17:33:59.594Z,12.43
2018-11-04T17:39:05.247Z,12.93
2018-11-04T17:44:10.665Z,12.18
2018-11-04T17:49:15.591Z,12.47
2018-11-04T17:54:20.169Z,13.75
2018-11-04T17:59:25.565Z,14.15
2018-11-04T18:04:29.997Z,14.40
2018-11-04T18:09:34.855Z,13.53
2018-11-04T18:14:39.474Z,16.73
2018-11-04T18:19:44.001Z,14.10
2018-11-04T18:24:48.818Z,11.55
2018-11-04T18:29:53.368Z,13.68
2018-11-04T18:34:57.826Z,15.40
2018-11-04T18:40:03.328Z,12.90
2018-11-04T18:45:09.454Z,16.77
2018-11-04T18:50:14.704Z,14.28
2018-11-04T18:55:19.149Z,12.90
2018-11-04T19:00:23.893Z,13.13
2018-11-04T19:05:28.528Z,16.17
2018-11-04T19:10:33.688Z,15.65
2018-11-04T19:15:41.699Z,13.00
2018-11-04T19:20:53.246Z,13.05
2018-11-04T19:26:00.208Z,14.58
2018-11-04T19:31:06.346Z,14.07
2018-11-04T19:36:11.163Z,14.23
2018-11-04T19:41:19.386Z,13.13
2018-11-04T19:46:28.121Z,13.43
2018-11-04T19:51:32.817Z,12.90
2018-11-04T19:56:38.348Z,12.83
2018-11-04T20:01:43.563Z,12.70
2018-11-04T20:06:48.262Z,12.57
2018-11-04T20:11:53.149Z,16.00
2018-11-04T20:16:58.048Z,15.23
2018-11-04T20:22:03.716Z,12.78
2018-11-04T20:27:09.495Z,12.80
2018-11-04T20:32:19.233Z,10.33
2018-11-04T20:37:23.868Z,14.07
2018-11-04T20:42:29.006Z,12.60
2018-11-04T20:47:40.316Z,11.47
2018-11-04T20:52:44.909Z,12.07
2018-11-04T20:57:57.906Z,12.43
2018-11-04T21:03:02.714Z,12.50
2018-11-04T21:08:07.856Z,11.43
2018-11-04T21:13:12.808Z,12.70
2018-11-04T21:18:17.891Z,13.13
2018-11-04T21:23:22.737Z,12.83
2018-11-04T21:28:28.209Z,11.73
2018-11-04T21:33:32.890Z,12.53
2018-11-04T21:38:37.466Z,11.97
2018-11-04T21:43:42.306Z,11.70
2018-11-04T21:48:47.021Z,11.43
2018-11-04T21:53:51.399Z,13.60
2018-11-04T21:58:56.161Z,13.20
2018-11-04T22:04:01.933Z,12.63
2018-11-04T22:09:08.201Z,12.27
2018-11-04T22:14:12.807Z,12.70
2018-11-04T22:19:17.612Z,13.17
2018-11-04T22:24:22.373Z,12.97
2018-11-04T22:29:26.904Z,11.80
2018-11-04T22:34:31.551Z,14.20
2018-11-04T22:39:36.755Z,13.20
2018-11-04T22:44:41.364Z,12.70
2018-11-04T22:49:46.271Z,13.37
2018-11-04T22:54:50.867Z,13.57
2018-11-04T22:59:55.508Z,14.50
2018-11-04T23:05:05.113Z,14.13
2018-11-04T23:10:09.561Z,13.77
2018-11-04T23:15:14.394Z,13.57
2018-11-04T23:20:18.765Z,12.70
2018-11-04T23:25:22.993Z,14.17
2018-11-04T23:30:27.347Z,13.93
2018-11-04T23:35:32.033Z,13.13
2018-11-04T23:40:36.425Z,13.73
2018-11-04T23:45:40.811Z,12.60
2018-11-04T23:50:45.833Z,11.43
2018-11-04T23:55:50.251Z,12.80
